createdAt,value
2023-02-12T00:01:22.434Z,19.23
2023-02-12T00:03:49.659Z,18.20
2023-02-12T00:06:17.347Z,16.17
2023-02-12T00:08:44.511Z,15.57
2023-02-12T00:11:16.590Z,14.10
2023-02-12T00:13:44.184Z,15.50
2023-02-12T00:16:16.724Z,17.23
2023-02-12T00:18:45.097Z,16.50
2023-02-12T00:21:14.102Z,18.07
2023-02-12T00:23:41.682Z,18.23
2023-02-12T00:26:10.683Z,18.60
2023-02-12T00:28:38.084Z,19.80
2023-02-12T00:31:13.278Z,17.73
2023-02-12T00:33:40.497Z,18.23
2023-02-12T00:36:08.758Z,19.13
2023-02-12T00:38:35.730Z,19.17
2023-02-12T00:41:03.000Z,18.53
2023-02-12T00:43:29.944Z,20.00
2023-02-12T00:45:57.327Z,18.40
2023-02-12T00:48:24.562Z,17.00
2023-02-12T00:50:51.614Z,16.73
2023-02-12T00:53:19.676Z,17.47
2023-02-12T00:55:46.875Z,18.10
2023-02-12T00:58:14.147Z,18.73
2023-02-12T01:00:41.113Z,18.80
2023-02-12T01:03:08.079Z,20.93
2023-02-12T01:05:35.410Z,19.40
2023-02-12T01:08:02.758Z,20.27
2023-02-12T01:10:29.791Z,22.60
2023-02-12T01:12:57.269Z,23.40
2023-02-12T01:15:24.876Z,21.90
2023-02-12T01:17:53.323Z,22.23
2023-02-12T01:20:22.689Z,23.30
2023-02-12T01:22:49.635Z,24.00
2023-02-12T01:25:20.129Z,21.27
2023-02-12T01:27:47.756Z,22.77
2023-02-12T01:30:16.038Z,21.40
2023-02-12T01:32:44.153Z,23.60
2023-02-12T01:35:11.637Z,21.80
2023-02-12T01:37:39.191Z,23.17
2023-02-12T01:40:08.300Z,22.13
2023-02-12T01:42:35.584Z,23.10
2023-02-12T01:45:14.739Z,21.07
2023-02-12T01:47:45.765Z,20.17
2023-02-12T01:50:18.997Z,21.07
2023-02-12T01:52:51.250Z,21.13
2023-02-12T01:55:20.581Z,22.47
2023-02-12T01:57:49.196Z,22.57
2023-02-12T02:00:21.331Z,22.30
2023-02-12T02:02:58.635Z,23.17
2023-02-12T02:06:03.728Z,24.00
2023-02-12T02:08:31.078Z,23.70
2023-02-12T02:10:58.123Z,25.23
2023-02-12T02:13:43.564Z,20.90
2023-02-12T02:16:37.264Z,20.60
2023-02-12T02:19:14.609Z,22.43
2023-02-12T02:21:59.959Z,21.07
2023-02-12T02:25:00.341Z,22.93
2023-02-12T02:27:39.230Z,22.10
2023-02-12T02:30:28.116Z,23.07
2023-02-12T02:33:04.766Z,21.67
2023-02-12T02:35:50.264Z,23.27
2023-02-12T02:38:32.921Z,22.83
2023-02-12T02:41:12.125Z,20.47
2023-02-12T02:43:44.622Z,20.03
2023-02-12T02:46:28.067Z,22.43
2023-02-12T02:49:01.153Z,20.43
2023-02-12T02:51:35.960Z,16.57
2023-02-12T02:54:21.433Z,18.20
2023-02-12T02:56:51.426Z,18.70
2023-02-12T02:59:25.593Z,20.70
2023-02-12T03:02:02.724Z,21.23
2023-02-12T03:04:58.345Z,21.13
2023-02-12T03:07:34.192Z,23.50
2023-02-12T03:10:31.459Z,23.80
2023-02-12T03:13:03.948Z,22.60
2023-02-12T03:15:34.676Z,22.10
2023-02-12T03:18:07.638Z,25.80
2023-02-12T03:20:44.245Z,27.60
2023-02-12T03:23:15.897Z,27.20
2023-02-12T03:26:01.679Z,26.17
2023-02-12T03:28:36.732Z,27.50
2023-02-12T03:31:22.444Z,28.23
2023-02-12T03:34:13.846Z,29.20
2023-02-12T03:37:13.018Z,27.83
2023-02-12T03:40:03.311Z,27.73
2023-02-12T03:42:59.680Z,28.63
2023-02-12T03:45:45.317Z,26.53
2023-02-12T03:48:31.145Z,28.73
2023-02-12T03:51:12.838Z,28.00
2023-02-12T03:53:40.042Z,28.90
2023-02-12T03:56:13.590Z,27.33
2023-02-12T03:58:42.524Z,25.73
2023-02-12T04:01:10.348Z,26.50
2023-02-12T04:03:37.562Z,23.43
2023-02-12T04:06:05.128Z,22.80
2023-02-12T04:08:32.887Z,16.67
2023-02-12T04:11:25.415Z,18.73
2023-02-12T04:14:27.116Z,16.93
2023-02-12T04:17:13.016Z,17.27
2023-02-12T04:19:59.009Z,19.03
2023-02-12T04:22:52.936Z,21.37
2023-02-12T04:25:45.248Z,21.77
2023-02-12T04:28:29.917Z,20.93
2023-02-12T04:31:21.194Z,23.03
2023-02-12T04:34:13.666Z,24.13
2023-02-12T04:36:59.027Z,24.43
2023-02-12T04:39:32.379Z,23.57
2023-02-12T04:42:01.098Z,24.50
2023-02-12T04:44:31.601Z,23.90
2023-02-12T04:46:58.605Z,24.17
2023-02-12T04:49:25.757Z,27.40
2023-02-12T04:51:53.456Z,27.00
2023-02-12T04:54:22.399Z,27.67
2023-02-12T04:56:50.369Z,29.80
2023-02-12T04:59:17.671Z,29.03
2023-02-12T05:01:45.796Z,27.20
2023-02-12T05:04:15.281Z,31.03
2023-02-12T05:06:43.795Z,33.03
2023-02-12T05:09:17.285Z,30.30
2023-02-12T05:11:44.634Z,28.00
2023-02-12T05:14:12.116Z,31.00
2023-02-12T05:16:41.687Z,31.07
2023-02-12T05:19:09.731Z,35.73
2023-02-12T05:21:38.443Z,32.30
2023-02-12T05:24:05.970Z,33.57
2023-02-12T05:26:32.949Z,29.83
2023-02-12T05:28:59.976Z,29.83
2023-02-12T05:31:27.098Z,30.27
2023-02-12T05:33:54.165Z,30.57
2023-02-12T05:36:23.681Z,29.77
2023-02-12T05:38:51.664Z,28.17
2023-02-12T05:41:24.433Z,29.93
2023-02-12T05:43:52.120Z,27.83
2023-02-12T05:46:20.915Z,29.30
2023-02-12T05:48:48.743Z,30.40
2023-02-12T05:51:21.934Z,29.23
2023-02-12T05:53:53.395Z,32.60
2023-02-12T05:56:28.125Z,31.60
2023-02-12T05:58:57.818Z,32.00
2023-02-12T06:01:29.961Z,34.30
2023-02-12T06:03:58.403Z,34.03
2023-02-12T06:06:27.238Z,35.07
2023-02-12T06:08:54.389Z,32.23
2023-02-12T06:11:21.496Z,28.80
2023-02-12T06:13:48.997Z,28.03
2023-02-12T06:16:22.939Z,25.77
2023-02-12T06:18:51.136Z,27.20
2023-02-12T06:21:20.245Z,26.63
2023-02-12T06:23:47.925Z,24.57
2023-02-12T06:26:15.545Z,24.67
2023-02-12T06:28:42.635Z,22.83
2023-02-12T06:31:27.924Z,23.40
2023-02-12T06:33:57.349Z,23.13
2023-02-12T06:36:24.860Z,23.77
2023-02-12T06:38:52.286Z,25.57
2023-02-12T06:41:19.559Z,27.57
2023-02-12T06:43:46.517Z,29.13
2023-02-12T06:46:15.209Z,27.27
2023-02-12T06:48:42.657Z,29.67
2023-02-12T06:51:17.706Z,27.40
2023-02-12T06:53:45.327Z,26.13
2023-02-12T06:56:13.750Z,26.93
2023-02-12T06:58:42.375Z,27.70
2023-02-12T07:01:15.184Z,27.77
2023-02-12T07:03:42.954Z,27.40
2023-02-12T07:06:10.745Z,27.17
2023-02-12T07:08:37.724Z,26.23
2023-02-12T07:11:05.305Z,27.13
2023-02-12T07:13:34.993Z,28.20
2023-02-12T07:16:10.848Z,29.30
2023-02-12T07:18:38.316Z,27.80
2023-02-12T07:21:07.028Z,27.50
2023-02-12T07:23:36.862Z,26.93
2023-02-12T07:26:07.193Z,28.53
2023-02-12T07:28:35.209Z,30.57
2023-02-12T07:31:15.121Z,27.50
2023-02-12T07:33:43.024Z,32.17
2023-02-12T07:36:13.865Z,31.80
2023-02-12T07:38:41.658Z,31.40
2023-02-12T07:41:18.072Z,32.17
2023-02-12T07:43:46.684Z,30.87
2023-02-12T07:46:19.160Z,32.73
2023-02-12T07:48:48.378Z,32.67
2023-02-12T07:51:26.665Z,31.77
2023-02-12T07:53:53.918Z,32.17
2023-02-12T07:56:31.027Z,31.10
2023-02-12T07:59:00.042Z,31.40
2023-02-12T08:01:35.707Z,30.93
2023-02-12T08:04:05.365Z,31.37
2023-02-12T08:06:35.101Z,30.90
2023-02-12T08:09:15.073Z,30.67
2023-02-12T08:11:43.541Z,29.13
2023-02-12T08:14:35.334Z,30.20
2023-02-12T08:17:02.240Z,30.70
2023-02-12T08:19:29.282Z,29.33
2023-02-12T08:21:57.240Z,32.07
2023-02-12T08:24:24.782Z,30.43
2023-02-12T08:26:56.948Z,30.63
2023-02-12T08:29:33.912Z,29.07
2023-02-12T08:32:03.921Z,30.90
2023-02-12T08:34:33.788Z,28.23
2023-02-12T08:37:01.320Z,30.10
2023-02-12T08:39:30.093Z,28.17
2023-02-12T08:41:58.560Z,29.73
2023-02-12T08:44:26.013Z,29.73
2023-02-12T08:46:55.743Z,30.73
2023-02-12T08:49:26.462Z,31.23
2023-02-12T08:51:56.380Z,30.60
2023-02-12T08:54:25.776Z,32.40
2023-02-12T08:56:57.591Z,33.67
2023-02-12T08:59:24.676Z,31.60
2023-02-12T09:01:53.285Z,32.70
2023-02-12T09:04:23.051Z,31.00
2023-02-12T09:06:51.155Z,32.07
2023-02-12T09:09:19.929Z,32.10
2023-02-12T09:11:49.425Z,33.30
2023-02-12T09:14:18.958Z,33.13
2023-02-12T09:16:46.204Z,31.33
2023-02-12T09:19:15.240Z,32.10
2023-02-12T09:21:44.788Z,35.53
2023-02-12T09:24:12.127Z,30.67
2023-02-12T09:26:40.081Z,32.27
2023-02-12T09:29:09.427Z,33.03
2023-02-12T09:31:37.754Z,33.30
2023-02-12T09:34:06.770Z,34.47
2023-02-12T09:36:35.784Z,34.40
2023-02-12T09:39:06.044Z,34.77
2023-02-12T09:41:55.079Z,33.17
2023-02-12T09:44:26.728Z,32.23
2023-02-12T09:47:11.070Z,30.40
2023-02-12T09:50:08.156Z,32.85
2023-02-12T09:52:36.002Z,29.90
2023-02-12T09:55:03.747Z,30.17
2023-02-12T09:57:38.503Z,29.23
2023-02-12T10:00:07.244Z,29.58
2023-02-12T10:02:45.453Z,29.25
2023-02-12T10:05:24.318Z,31.35
2023-02-12T10:08:24.607Z,30.85
2023-02-12T10:11:05.815Z,28.25
2023-02-12T10:13:36.198Z,30.52
2023-02-12T10:16:45.415Z,32.65
2023-02-12T10:19:57.744Z,24.67
2023-02-12T10:22:56.152Z,23.73
2023-02-12T10:25:26.743Z,20.23
2023-02-12T10:27:57.415Z,17.80
2023-02-12T10:30:55.825Z,17.75
2023-02-12T10:33:31.531Z,15.80
2023-02-12T10:36:29.026Z,17.92
2023-02-12T10:39:02.831Z,15.18
2023-02-12T10:41:32.205Z,14.75
2023-02-12T10:43:59.165Z,15.05
2023-02-12T10:46:28.726Z,17.55
2023-02-12T10:48:58.969Z,20.52
2023-02-12T10:51:38.676Z,16.25
2023-02-12T10:54:43.667Z,11.30
2023-02-12T10:57:12.775Z,15.68
2023-02-12T10:59:41.544Z,14.80
2023-02-12T11:02:24.334Z,12.80
2023-02-12T11:04:53.005Z,11.73
2023-02-12T11:07:21.125Z,13.90
2023-02-12T11:09:50.400Z,9.18
2023-02-12T11:12:31.835Z,7.80
2023-02-12T11:15:02.901Z,10.52
2023-02-12T11:17:39.904Z,12.82
2023-02-12T11:20:16.051Z,12.80
2023-02-12T11:23:01.237Z,13.05
2023-02-12T11:25:34.452Z,12.88
2023-02-12T11:28:21.330Z,12.73
2023-02-12T11:30:54.597Z,12.55
2023-02-12T11:33:26.038Z,12.05
2023-02-12T11:35:59.751Z,13.85
2023-02-12T11:38:33.263Z,15.30
2023-02-12T11:41:05.652Z,15.23
2023-02-12T11:43:37.389Z,15.68
2023-02-12T11:46:06.757Z,16.38
2023-02-12T11:48:38.455Z,16.33
2023-02-12T11:51:09.316Z,17.02
2023-02-12T11:53:42.108Z,17.90
2023-02-12T11:56:12.097Z,17.13
2023-02-12T11:58:39.987Z,15.98
2023-02-12T12:01:17.422Z,17.08
2023-02-12T12:04:14.205Z,16.27
2023-02-12T12:06:48.810Z,17.02
2023-02-12T12:09:43.946Z,15.38
2023-02-12T12:12:37.848Z,17.58
2023-02-12T12:15:45.185Z,17.10
2023-02-12T12:18:37.630Z,16.17
2023-02-12T12:21:19.437Z,15.03
2023-02-12T12:24:01.057Z,15.27
2023-02-12T12:26:34.622Z,13.90
2023-02-12T12:29:24.332Z,14.00
2023-02-12T12:31:58.074Z,14.37
2023-02-12T12:34:27.872Z,13.23
2023-02-12T12:37:06.569Z,14.10
2023-02-12T12:39:55.880Z,13.23
2023-02-12T12:42:59.822Z,12.55
2023-02-12T12:46:03.252Z,13.10
2023-02-12T12:49:01.603Z,14.65
2023-02-12T12:51:43.532Z,13.95
2023-02-12T12:54:22.290Z,13.85
2023-02-12T12:57:03.360Z,13.23
2023-02-12T13:00:06.899Z,12.73
2023-02-12T13:02:51.583Z,12.38
2023-02-12T13:06:06.316Z,13.38
2023-02-12T13:08:33.198Z,14.07
2023-02-12T13:11:19.451Z,13.30
2023-02-12T13:13:50.648Z,14.18
2023-02-12T13:16:29.495Z,12.90
2023-02-12T13:19:41.622Z,12.05
2023-02-12T13:22:26.287Z,13.07
2023-02-12T13:25:08.235Z,13.77
2023-02-12T13:27:43.364Z,12.30
2023-02-12T13:30:20.615Z,14.93
2023-02-12T13:32:53.362Z,12.30
2023-02-12T13:35:23.648Z,13.93
2023-02-12T13:37:53.825Z,12.43
2023-02-12T13:40:29.491Z,14.00
2023-02-12T13:43:33.575Z,12.13
2023-02-12T13:46:13.636Z,12.40
2023-02-12T13:49:02.356Z,12.75
2023-02-12T13:51:48.851Z,11.30
2023-02-12T13:54:37.902Z,10.85
2023-02-12T13:57:13.109Z,11.48
2023-02-12T13:59:42.749Z,11.68
2023-02-12T14:02:12.998Z,10.65
2023-02-12T14:05:02.411Z,11.73
2023-02-12T14:07:52.758Z,11.73
2023-02-12T14:10:30.636Z,12.27
2023-02-12T14:13:19.968Z,10.25
2023-02-12T14:15:54.625Z,14.70
2023-02-12T14:18:26.170Z,11.38
2023-02-12T14:21:11.683Z,10.00
2023-02-12T14:23:50.031Z,10.18
2023-02-12T14:26:19.487Z,16.38
2023-02-12T14:29:05.445Z,11.40
2023-02-12T14:31:34.163Z,12.68
2023-02-12T14:34:07.774Z,17.50
2023-02-12T14:36:42.789Z,11.55
2023-02-12T14:39:24.712Z,10.32
2023-02-12T14:41:57.402Z,10.43
2023-02-12T14:44:26.047Z,10.57
2023-02-12T14:46:55.319Z,9.98
2023-02-12T14:49:32.885Z,12.93
2023-02-12T14:52:07.991Z,10.38
2023-02-12T14:54:42.520Z,10.45
2023-02-12T14:57:26.417Z,10.95
2023-02-12T15:00:15.706Z,12.20
2023-02-12T15:03:04.978Z,10.90
2023-02-12T15:05:38.151Z,10.77
2023-02-12T15:08:14.051Z,11.77
2023-02-12T15:10:47.497Z,12.30
2023-02-12T15:13:30.276Z,10.93
2023-02-12T15:16:13.688Z,12.40
2023-02-12T15:18:49.350Z,11.87
2023-02-12T15:21:32.191Z,11.03
2023-02-12T15:24:11.932Z,10.97
2023-02-12T15:26:49.030Z,10.27
2023-02-12T15:29:28.107Z,11.00
2023-02-12T15:32:00.879Z,11.17
2023-02-12T15:34:31.948Z,10.83
2023-02-12T15:37:02.241Z,19.37
2023-02-12T15:39:43.485Z,16.30
2023-02-12T15:42:32.263Z,11.10
2023-02-12T15:45:14.470Z,10.73
2023-02-12T15:47:42.466Z,10.37
2023-02-12T15:50:14.524Z,11.13
2023-02-12T15:52:44.954Z,10.73
2023-02-12T15:55:18.415Z,10.97
2023-02-12T15:57:50.856Z,12.43
2023-02-12T16:00:41.665Z,11.43
2023-02-12T16:03:33.395Z,12.67
2023-02-12T16:06:16.972Z,11.30
2023-02-12T16:08:47.741Z,10.77
2023-02-12T16:11:20.093Z,9.40
2023-02-12T16:14:15.606Z,9.87
2023-02-12T16:16:51.539Z,10.53
2023-02-12T16:19:22.529Z,9.97
2023-02-12T16:21:56.592Z,10.60
2023-02-12T16:24:28.613Z,10.40
2023-02-12T16:26:57.452Z,10.53
2023-02-12T16:29:24.769Z,9.40
2023-02-12T16:32:01.331Z,9.43
2023-02-12T16:34:37.569Z,9.13
2023-02-12T16:37:36.217Z,9.33
2023-02-12T16:40:17.807Z,8.07
2023-02-12T16:42:47.719Z,8.07
2023-02-12T16:45:28.175Z,8.33
2023-02-12T16:48:16.558Z,9.90
2023-02-12T16:50:50.211Z,11.83
2023-02-12T16:53:47.489Z,10.73
2023-02-12T16:56:18.361Z,10.93
2023-02-12T16:58:48.453Z,12.47
2023-02-12T17:01:25.254Z,10.70
2023-02-12T17:03:53.636Z,10.13
2023-02-12T17:06:23.432Z,9.77
2023-02-12T17:08:50.846Z,10.30
2023-02-12T17:11:18.360Z,9.70
2023-02-12T17:13:50.077Z,16.50
2023-02-12T17:16:29.868Z,11.10
2023-02-12T17:18:57.799Z,10.23
2023-02-12T17:21:28.269Z,10.13
2023-02-12T17:23:55.361Z,13.07
2023-02-12T17:26:23.564Z,9.80
2023-02-12T17:28:50.510Z,27.07
2023-02-12T17:31:17.772Z,12.17
2023-02-12T17:33:44.773Z,17.10
2023-02-12T17:36:12.469Z,11.57
2023-02-12T17:38:39.467Z,10.10
2023-02-12T17:41:10.824Z,10.03
2023-02-12T17:43:37.840Z,10.07
2023-02-12T17:46:18.914Z,10.77
2023-02-12T17:48:45.940Z,10.13
2023-02-12T17:51:13.524Z,10.40
2023-02-12T17:53:41.193Z,11.63
2023-02-12T17:56:16.448Z,10.83
2023-02-12T17:58:44.397Z,11.03
2023-02-12T18:01:14.431Z,11.70
2023-02-12T18:03:41.399Z,11.03
2023-02-12T18:06:09.610Z,11.60
2023-02-12T18:08:36.563Z,11.30
2023-02-12T18:11:07.949Z,10.73
2023-02-12T18:13:35.000Z,10.27
2023-02-12T18:16:02.709Z,10.07
2023-02-12T18:18:29.615Z,10.87
2023-02-12T18:20:59.515Z,9.17
2023-02-12T18:23:26.702Z,8.87
2023-02-12T18:25:53.665Z,9.67
2023-02-12T18:28:20.573Z,7.23
2023-02-12T18:30:57.017Z,8.07
2023-02-12T18:33:24.693Z,7.90
2023-02-12T18:36:01.960Z,7.87
2023-02-12T18:38:29.334Z,8.47
2023-02-12T18:40:57.082Z,8.57
2023-02-12T18:43:24.863Z,7.27
2023-02-12T18:45:52.251Z,9.10
2023-02-12T18:48:19.180Z,8.40
2023-02-12T18:50:46.129Z,8.33
2023-02-12T18:53:13.210Z,8.70
2023-02-12T18:55:40.153Z,9.83
2023-02-12T18:58:07.322Z,8.43
2023-02-12T19:00:35.119Z,9.90
2023-02-12T19:03:02.325Z,10.23
2023-02-12T19:05:30.872Z,9.80
2023-02-12T19:07:57.890Z,8.80
2023-02-12T19:10:24.829Z,9.20
2023-02-12T19:12:51.908Z,10.17
2023-02-12T19:15:18.938Z,8.80
2023-02-12T19:17:46.002Z,8.50
2023-02-12T19:20:14.813Z,9.77
2023-02-12T19:22:42.295Z,9.50
2023-02-12T19:25:09.931Z,9.67
2023-02-12T19:27:37.019Z,9.73
2023-02-12T19:30:05.923Z,8.37
2023-02-12T19:32:33.305Z,9.13
2023-02-12T19:35:00.358Z,9.20
2023-02-12T19:37:27.462Z,10.23
2023-02-12T19:39:54.578Z,9.03
2023-02-12T19:42:21.523Z,9.03
2023-02-12T19:44:48.671Z,7.77
2023-02-12T19:47:16.466Z,8.57
2023-02-12T19:49:43.483Z,8.53
2023-02-12T19:52:10.476Z,9.73
2023-02-12T19:54:37.485Z,10.17
2023-02-12T19:57:09.379Z,9.67
2023-02-12T19:59:36.855Z,9.73
2023-02-12T20:02:04.476Z,9.57
2023-02-12T20:04:31.971Z,10.93
2023-02-12T20:06:59.135Z,9.57
2023-02-12T20:09:26.380Z,10.83
2023-02-12T20:11:53.774Z,18.93
2023-02-12T20:14:22.869Z,17.03
2023-02-12T20:16:51.285Z,17.47
2023-02-12T20:19:23.196Z,12.20
2023-02-12T20:21:55.278Z,11.70
2023-02-12T20:24:24.462Z,12.90
2023-02-12T20:26:52.231Z,14.03
2023-02-12T20:29:20.100Z,15.53
2023-02-12T20:31:47.742Z,16.53
2023-02-12T20:34:17.084Z,16.67
2023-02-12T20:36:48.224Z,16.77
2023-02-12T20:39:20.964Z,11.67
2023-02-12T20:41:48.756Z,10.63
2023-02-12T20:44:18.698Z,10.43
2023-02-12T20:46:47.324Z,10.47
2023-02-12T20:49:16.423Z,13.33
2023-02-12T20:51:44.652Z,13.57
2023-02-12T20:54:12.444Z,16.77
2023-02-12T20:56:39.678Z,15.50
2023-02-12T20:59:07.641Z,15.57
2023-02-12T21:01:39.355Z,16.57
2023-02-12T21:04:09.011Z,17.40
2023-02-12T21:06:36.915Z,16.73
2023-02-12T21:09:04.306Z,16.93
2023-02-12T21:11:31.261Z,16.87
2023-02-12T21:14:18.489Z,17.80
2023-02-12T21:16:46.775Z,24.30
2023-02-12T21:19:14.198Z,15.03
2023-02-12T21:21:42.347Z,15.87
2023-02-12T21:24:16.617Z,14.00
2023-02-12T21:26:43.953Z,14.27
2023-02-12T21:29:11.104Z,16.83
2023-02-12T21:31:41.296Z,17.20
2023-02-12T21:34:11.295Z,17.30
2023-02-12T21:36:40.694Z,17.37
2023-02-12T21:39:10.119Z,16.87
2023-02-12T21:41:39.332Z,16.73
2023-02-12T21:44:13.101Z,16.43
2023-02-12T21:46:40.704Z,17.83
2023-02-12T21:49:08.251Z,16.97
2023-02-12T21:51:41.308Z,17.83
2023-02-12T21:54:15.489Z,17.57
2023-02-12T21:56:44.298Z,17.93
2023-02-12T21:59:12.365Z,19.63
2023-02-12T22:01:43.685Z,17.47
2023-02-12T22:04:11.221Z,18.17
2023-02-12T22:06:40.011Z,19.07
2023-02-12T22:09:08.784Z,20.47
2023-02-12T22:11:36.955Z,18.23
2023-02-12T22:14:05.061Z,18.97
2023-02-12T22:16:32.371Z,18.43
2023-02-12T22:19:01.786Z,18.37
2023-02-12T22:21:30.670Z,17.57
2023-02-12T22:23:59.538Z,18.17
2023-02-12T22:26:28.465Z,18.80
2023-02-12T22:29:05.500Z,18.97
2023-02-12T22:31:34.869Z,18.27
2023-02-12T22:34:05.095Z,17.70
2023-02-12T22:36:35.693Z,18.93
2023-02-12T22:39:02.658Z,19.30
2023-02-12T22:41:29.881Z,16.73
2023-02-12T22:43:59.363Z,16.80
2023-02-12T22:46:26.701Z,15.53
2023-02-12T22:48:53.668Z,16.00
2023-02-12T22:51:26.925Z,16.10
2023-02-12T22:53:54.440Z,15.60
2023-02-12T22:56:22.160Z,16.60
2023-02-12T22:58:49.302Z,17.27
2023-02-12T23:01:18.337Z,16.97
2023-02-12T23:03:46.047Z,17.67
2023-02-12T23:06:15.882Z,17.17
2023-02-12T23:08:43.960Z,17.07
2023-02-12T23:11:12.164Z,16.73
2023-02-12T23:13:39.516Z,15.77
2023-02-12T23:16:06.674Z,17.43
2023-02-12T23:18:33.956Z,16.37
2023-02-12T23:21:01.553Z,16.33
2023-02-12T23:23:28.554Z,16.57
2023-02-12T23:25:55.819Z,15.77
2023-02-12T23:28:23.420Z,15.13
2023-02-12T23:30:51.625Z,14.70
2023-02-12T23:33:19.472Z,14.27
2023-02-12T23:35:47.675Z,14.40
2023-02-12T23:38:14.936Z,14.20
2023-02-12T23:40:42.772Z,14.27
2023-02-12T23:43:09.865Z,14.17
2023-02-12T23:45:37.085Z,14.10
2023-02-12T23:48:04.139Z,14.13
2023-02-12T23:50:32.205Z,15.80
2023-02-12T23:52:59.525Z,15.17
2023-02-12T23:55:26.552Z,13.73
2023-02-12T23:57:53.519Z,13.93
